sensor_id;sensor_type;location;lat;lon;timestamp;P1;durP1;ratioP1;P2;durP2;ratioP2
83513;SDS011;73447;53.262;10.424;2024-03-22T00:02:23;13.02;;;7.50;;
83513;SDS011;73447;53.262;10.424;2024-03-22T00:05:47;15.15;;;7.60;;
83513;SDS011;73447;53.262;10.424;2024-03-22T00:09:12;16.23;;;8.13;;
83513;SDS011;73447;53.262;10.424;2024-03-22T00:12:36;14.60;;;7.90;;
83513;SDS011;73447;53.262;10.424;2024-03-22T00:16:00;14.55;;;7.53;;
83513;SDS011;73447;53.262;10.424;2024-03-22T00:19:24;13.57;;;7.70;;
83513;SDS011;73447;53.262;10.424;2024-03-22T00:22:48;11.75;;;7.47;;
83513;SDS011;73447;53.262;10.424;2024-03-22T00:26:11;18.33;;;9.00;;
83513;SDS011;73447;53.262;10.424;2024-03-22T00:29:37;12.45;;;7.72;;
83513;SDS011;73447;53.262;10.424;2024-03-22T00:33:01;17.48;;;8.55;;
83513;SDS011;73447;53.262;10.424;2024-03-22T00:36:25;14.63;;;8.10;;
83513;SDS011;73447;53.262;10.424;2024-03-22T00:39:49;13.48;;;8.55;;
83513;SDS011;73447;53.262;10.424;2024-03-22T00:43:13;15.55;;;8.43;;
83513;SDS011;73447;53.262;10.424;2024-03-22T00:46:37;15.15;;;8.77;;
83513;SDS011;73447;53.262;10.424;2024-03-22T00:50:01;15.95;;;8.80;;
83513;SDS011;73447;53.262;10.424;2024-03-22T00:53:25;13.57;;;8.68;;
83513;SDS011;73447;53.262;10.424;2024-03-22T00:56:48;15.80;;;9.27;;
83513;SDS011;73447;53.262;10.424;2024-03-22T01:00:12;16.58;;;9.88;;
83513;SDS011;73447;53.262;10.424;2024-03-22T01:07:00;27.63;;;10.17;;
83513;SDS011;73447;53.262;10.424;2024-03-22T01:10:24;17.98;;;9.43;;
83513;SDS011;73447;53.262;10.424;2024-03-22T01:13:48;19.42;;;10.38;;
83513;SDS011;73447;53.262;10.424;2024-03-22T01:17:12;20.20;;;10.07;;
83513;SDS011;73447;53.262;10.424;2024-03-22T01:20:36;16.50;;;9.93;;
83513;SDS011;73447;53.262;10.424;2024-03-22T01:24:00;15.30;;;9.85;;
83513;SDS011;73447;53.262;10.424;2024-03-22T01:27:24;17.75;;;10.13;;
83513;SDS011;73447;53.262;10.424;2024-03-22T01:30:48;20.58;;;10.93;;
83513;SDS011;73447;53.262;10.424;2024-03-22T01:34:12;19.35;;;10.07;;
83513;SDS011;73447;53.262;10.424;2024-03-22T01:37:36;19.33;;;10.88;;
83513;SDS011;73447;53.262;10.424;2024-03-22T01:41:00;19.75;;;11.30;;
83513;SDS011;73447;53.262;10.424;2024-03-22T01:44:28;19.90;;;11.13;;
83513;SDS011;73447;53.262;10.424;2024-03-22T01:47:56;19.08;;;11.75;;
83513;SDS011;73447;53.262;10.424;2024-03-22T01:51:20;17.75;;;11.45;;
83513;SDS011;73447;53.262;10.424;2024-03-22T01:54:44;18.27;;;11.60;;
83513;SDS011;73447;53.262;10.424;2024-03-22T01:58:08;20.20;;;11.10;;
83513;SDS011;73447;53.262;10.424;2024-03-22T02:01:33;19.60;;;12.18;;
83513;SDS011;73447;53.262;10.424;2024-03-22T02:04:57;20.73;;;11.50;;
83513;SDS011;73447;53.262;10.424;2024-03-22T02:08:21;18.75;;;11.23;;
83513;SDS011;73447;53.262;10.424;2024-03-22T02:11:46;25.52;;;13.27;;
83513;SDS011;73447;53.262;10.424;2024-03-22T02:18:34;21.23;;;12.23;;
83513;SDS011;73447;53.262;10.424;2024-03-22T02:21:58;21.98;;;13.07;;
83513;SDS011;73447;53.262;10.424;2024-03-22T02:25:21;21.35;;;12.52;;
83513;SDS011;73447;53.262;10.424;2024-03-22T02:28:45;22.25;;;12.65;;
83513;SDS011;73447;53.262;10.424;2024-03-22T02:32:09;24.13;;;12.82;;
83513;SDS011;73447;53.262;10.424;2024-03-22T02:35:33;21.45;;;12.70;;
83513;SDS011;73447;53.262;10.424;2024-03-22T02:38:57;22.70;;;12.07;;
83513;SDS011;73447;53.262;10.424;2024-03-22T02:42:21;23.77;;;12.73;;
83513;SDS011;73447;53.262;10.424;2024-03-22T02:45:46;24.25;;;13.20;;
83513;SDS011;73447;53.262;10.424;2024-03-22T02:49:10;23.55;;;13.32;;
83513;SDS011;73447;53.262;10.424;2024-03-22T02:52:34;23.35;;;13.45;;
83513;SDS011;73447;53.262;10.424;2024-03-22T02:55:59;24.40;;;13.57;;
83513;SDS011;73447;53.262;10.424;2024-03-22T02:59:26;27.10;;;14.63;;
83513;SDS011;73447;53.262;10.424;2024-03-22T03:02:50;25.27;;;14.05;;
83513;SDS011;73447;53.262;10.424;2024-03-22T03:06:14;27.70;;;14.50;;
83513;SDS011;73447;53.262;10.424;2024-03-22T03:09:38;28.95;;;15.27;;
83513;SDS011;73447;53.262;10.424;2024-03-22T03:13:01;25.75;;;14.00;;
83513;SDS011;73447;53.262;10.424;2024-03-22T03:16:25;29.70;;;16.33;;
83513;SDS011;73447;53.262;10.424;2024-03-22T03:19:49;28.17;;;16.33;;
83513;SDS011;73447;53.262;10.424;2024-03-22T03:23:13;29.98;;;16.17;;
83513;SDS011;73447;53.262;10.424;2024-03-22T03:26:37;25.30;;;13.70;;
83513;SDS011;73447;53.262;10.424;2024-03-22T03:30:01;31.38;;;16.20;;
83513;SDS011;73447;53.262;10.424;2024-03-22T03:33:25;31.48;;;15.73;;
83513;SDS011;73447;53.262;10.424;2024-03-22T03:36:49;28.08;;;15.52;;
83513;SDS011;73447;53.262;10.424;2024-03-22T03:40:13;30.30;;;16.35;;
83513;SDS011;73447;53.262;10.424;2024-03-22T03:43:36;28.77;;;15.40;;
83513;SDS011;73447;53.262;10.424;2024-03-22T03:47:01;27.95;;;15.68;;
83513;SDS011;73447;53.262;10.424;2024-03-22T03:50:25;26.85;;;17.13;;
83513;SDS011;73447;53.262;10.424;2024-03-22T03:53:49;28.48;;;15.52;;
83513;SDS011;73447;53.262;10.424;2024-03-22T03:57:13;28.88;;;16.63;;
83513;SDS011;73447;53.262;10.424;2024-03-22T04:00:37;30.83;;;16.77;;
83513;SDS011;73447;53.262;10.424;2024-03-22T04:04:01;30.85;;;16.98;;
83513;SDS011;73447;53.262;10.424;2024-03-22T04:07:25;27.50;;;16.10;;
83513;SDS011;73447;53.262;10.424;2024-03-22T04:10:53;29.85;;;16.75;;
83513;SDS011;73447;53.262;10.424;2024-03-22T04:14:17;31.63;;;17.25;;
83513;SDS011;73447;53.262;10.424;2024-03-22T04:17:41;31.23;;;17.02;;
83513;SDS011;73447;53.262;10.424;2024-03-22T04:21:04;27.13;;;15.93;;
83513;SDS011;73447;53.262;10.424;2024-03-22T04:24:29;32.40;;;18.08;;
83513;SDS011;73447;53.262;10.424;2024-03-22T04:27:53;32.88;;;18.45;;
83513;SDS011;73447;53.262;10.424;2024-03-22T04:31:17;35.17;;;18.33;;
83513;SDS011;73447;53.262;10.424;2024-03-22T04:34:44;32.40;;;18.60;;
83513;SDS011;73447;53.262;10.424;2024-03-22T04:38:10;33.58;;;18.75;;
83513;SDS011;73447;53.262;10.424;2024-03-22T04:41:35;34.78;;;18.63;;
83513;SDS011;73447;53.262;10.424;2024-03-22T04:44:58;33.42;;;19.13;;
83513;SDS011;73447;53.262;10.424;2024-03-22T04:48:22;35.45;;;19.02;;
83513;SDS011;73447;53.262;10.424;2024-03-22T04:51:47;34.40;;;19.80;;
83513;SDS011;73447;53.262;10.424;2024-03-22T04:55:10;33.88;;;18.23;;
83513;SDS011;73447;53.262;10.424;2024-03-22T04:58:34;35.92;;;20.98;;
83513;SDS011;73447;53.262;10.424;2024-03-22T05:01:58;36.53;;;19.20;;
83513;SDS011;73447;53.262;10.424;2024-03-22T05:05:22;33.45;;;19.52;;
83513;SDS011;73447;53.262;10.424;2024-03-22T05:08:46;40.03;;;19.73;;
83513;SDS011;73447;53.262;10.424;2024-03-22T05:12:10;38.92;;;19.83;;
83513;SDS011;73447;53.262;10.424;2024-03-22T05:15:34;39.63;;;20.05;;
83513;SDS011;73447;53.262;10.424;2024-03-22T05:18:58;34.95;;;19.38;;
83513;SDS011;73447;53.262;10.424;2024-03-22T05:22:23;36.95;;;19.48;;
83513;SDS011;73447;53.262;10.424;2024-03-22T05:25:47;41.75;;;21.73;;
83513;SDS011;73447;53.262;10.424;2024-03-22T05:29:11;36.30;;;20.30;;
83513;SDS011;73447;53.262;10.424;2024-03-22T05:32:35;45.70;;;22.25;;
83513;SDS011;73447;53.262;10.424;2024-03-22T05:35:59;38.85;;;23.40;;
83513;SDS011;73447;53.262;10.424;2024-03-22T05:39:24;37.45;;;21.33;;
83513;SDS011;73447;53.262;10.424;2024-03-22T05:42:48;45.72;;;23.15;;
83513;SDS011;73447;53.262;10.424;2024-03-22T05:46:12;44.25;;;21.65;;
83513;SDS011;73447;53.262;10.424;2024-03-22T05:49:36;42.67;;;23.17;;
83513;SDS011;73447;53.262;10.424;2024-03-22T05:52:59;42.33;;;23.58;;
83513;SDS011;73447;53.262;10.424;2024-03-22T05:56:23;41.42;;;22.13;;
83513;SDS011;73447;53.262;10.424;2024-03-22T05:59:47;39.25;;;21.70;;
83513;SDS011;73447;53.262;10.424;2024-03-22T06:03:12;49.47;;;24.33;;
83513;SDS011;73447;53.262;10.424;2024-03-22T06:06:36;39.70;;;22.90;;
83513;SDS011;73447;53.262;10.424;2024-03-22T06:10:06;47.00;;;23.88;;
83513;SDS011;73447;53.262;10.424;2024-03-22T06:13:32;43.70;;;23.73;;
83513;SDS011;73447;53.262;10.424;2024-03-22T06:16:56;48.80;;;23.88;;
83513;SDS011;73447;53.262;10.424;2024-03-22T06:20:20;42.00;;;23.15;;
83513;SDS011;73447;53.262;10.424;2024-03-22T06:23:49;44.25;;;24.73;;
83513;SDS011;73447;53.262;10.424;2024-03-22T06:27:13;46.42;;;25.10;;
83513;SDS011;73447;53.262;10.424;2024-03-22T06:30:37;50.17;;;25.38;;
83513;SDS011;73447;53.262;10.424;2024-03-22T06:34:01;44.17;;;23.27;;
83513;SDS011;73447;53.262;10.424;2024-03-22T06:37:25;43.67;;;23.67;;
83513;SDS011;73447;53.262;10.424;2024-03-22T06:40:49;50.05;;;25.67;;
83513;SDS011;73447;53.262;10.424;2024-03-22T06:44:13;46.97;;;24.85;;
83513;SDS011;73447;53.262;10.424;2024-03-22T06:47:37;46.28;;;25.48;;
83513;SDS011;73447;53.262;10.424;2024-03-22T06:51:01;45.22;;;25.42;;
83513;SDS011;73447;53.262;10.424;2024-03-22T06:54:25;48.38;;;26.45;;
83513;SDS011;73447;53.262;10.424;2024-03-22T06:57:49;49.00;;;25.45;;
83513;SDS011;73447;53.262;10.424;2024-03-22T07:01:13;46.10;;;24.35;;
83513;SDS011;73447;53.262;10.424;2024-03-22T07:04:39;46.15;;;24.65;;
83513;SDS011;73447;53.262;10.424;2024-03-22T07:08:03;48.05;;;25.27;;
83513;SDS011;73447;53.262;10.424;2024-03-22T07:11:28;50.25;;;27.38;;
83513;SDS011;73447;53.262;10.424;2024-03-22T07:14:53;49.08;;;26.38;;
83513;SDS011;73447;53.262;10.424;2024-03-22T07:18:17;52.88;;;26.75;;
83513;SDS011;73447;53.262;10.424;2024-03-22T07:21:40;56.17;;;26.65;;
83513;SDS011;73447;53.262;10.424;2024-03-22T07:25:05;48.72;;;26.58;;
83513;SDS011;73447;53.262;10.424;2024-03-22T07:28:30;50.17;;;26.52;;
83513;SDS011;73447;53.262;10.424;2024-03-22T07:31:54;53.22;;;27.48;;
83513;SDS011;73447;53.262;10.424;2024-03-22T07:35:18;51.50;;;29.63;;
83513;SDS011;73447;53.262;10.424;2024-03-22T07:38:42;49.13;;;27.20;;
83513;SDS011;73447;53.262;10.424;2024-03-22T07:42:06;54.40;;;29.15;;
83513;SDS011;73447;53.262;10.424;2024-03-22T07:45:36;57.28;;;29.80;;
83513;SDS011;73447;53.262;10.424;2024-03-22T07:49:00;58.80;;;30.63;;
83513;SDS011;73447;53.262;10.424;2024-03-22T07:52:24;55.55;;;28.17;;
83513;SDS011;73447;53.262;10.424;2024-03-22T07:55:48;60.50;;;30.48;;
83513;SDS011;73447;53.262;10.424;2024-03-22T07:59:12;58.30;;;30.33;;
83513;SDS011;73447;53.262;10.424;2024-03-22T08:06:00;58.70;;;30.27;;
83513;SDS011;73447;53.262;10.424;2024-03-22T08:08:57;57.33;;;29.60;;
83513;SDS011;73447;53.262;10.424;2024-03-22T08:12:22;62.55;;;32.13;;
83513;SDS011;73447;53.262;10.424;2024-03-22T08:15:46;61.95;;;31.15;;
83513;SDS011;73447;53.262;10.424;2024-03-22T08:19:10;64.68;;;31.15;;
83513;SDS011;73447;53.262;10.424;2024-03-22T08:22:34;60.55;;;30.95;;
83513;SDS011;73447;53.262;10.424;2024-03-22T08:25:59;65.80;;;32.33;;
83513;SDS011;73447;53.262;10.424;2024-03-22T08:29:23;63.30;;;32.15;;
83513;SDS011;73447;53.262;10.424;2024-03-22T08:32:48;61.50;;;32.25;;
83513;SDS011;73447;53.262;10.424;2024-03-22T08:36:12;61.85;;;30.67;;
83513;SDS011;73447;53.262;10.424;2024-03-22T08:39:36;65.88;;;33.20;;
83513;SDS011;73447;53.262;10.424;2024-03-22T08:43:00;65.68;;;29.48;;
83513;SDS011;73447;53.262;10.424;2024-03-22T08:45:26;68.93;;;32.72;;
83513;SDS011;73447;53.262;10.424;2024-03-22T08:48:51;63.13;;;32.03;;
83513;SDS011;73447;53.262;10.424;2024-03-22T08:51:31;65.38;;;33.33;;
83513;SDS011;73447;53.262;10.424;2024-03-22T08:54:57;67.28;;;34.15;;
83513;SDS011;73447;53.262;10.424;2024-03-22T08:57:52;68.85;;;32.47;;
83513;SDS011;73447;53.262;10.424;2024-03-22T09:00:17;67.18;;;32.67;;
83513;SDS011;73447;53.262;10.424;2024-03-22T09:02:43;66.45;;;33.20;;
83513;SDS011;73447;53.262;10.424;2024-03-22T09:05:08;64.13;;;32.10;;
83513;SDS011;73447;53.262;10.424;2024-03-22T09:07:34;62.28;;;32.20;;
83513;SDS011;73447;53.262;10.424;2024-03-22T09:09:59;61.28;;;31.48;;
83513;SDS011;73447;53.262;10.424;2024-03-22T09:12:25;63.25;;;31.27;;
83513;SDS011;73447;53.262;10.424;2024-03-22T09:14:50;62.20;;;30.85;;
83513;SDS011;73447;53.262;10.424;2024-03-22T09:17:15;64.35;;;30.33;;
83513;SDS011;73447;53.262;10.424;2024-03-22T09:19:41;66.28;;;33.92;;
83513;SDS011;73447;53.262;10.424;2024-03-22T09:22:06;60.70;;;29.90;;
83513;SDS011;73447;53.262;10.424;2024-03-22T09:24:32;61.30;;;30.17;;
83513;SDS011;73447;53.262;10.424;2024-03-22T09:26:57;61.63;;;29.40;;
83513;SDS011;73447;53.262;10.424;2024-03-22T09:29:23;56.03;;;28.77;;
83513;SDS011;73447;53.262;10.424;2024-03-22T09:31:49;66.68;;;32.65;;
83513;SDS011;73447;53.262;10.424;2024-03-22T09:34:15;64.55;;;31.65;;
83513;SDS011;73447;53.262;10.424;2024-03-22T09:36:41;61.30;;;31.52;;
83513;SDS011;73447;53.262;10.424;2024-03-22T09:39:07;62.63;;;32.22;;
83513;SDS011;73447;53.262;10.424;2024-03-22T09:41:33;59.65;;;28.95;;
83513;SDS011;73447;53.262;10.424;2024-03-22T09:44:06;56.67;;;30.33;;
83513;SDS011;73447;53.262;10.424;2024-03-22T09:46:32;58.03;;;28.98;;
83513;SDS011;73447;53.262;10.424;2024-03-22T09:48:59;55.67;;;28.88;;
83513;SDS011;73447;53.262;10.424;2024-03-22T09:51:26;57.70;;;28.90;;
83513;SDS011;73447;53.262;10.424;2024-03-22T09:53:52;51.70;;;27.15;;
83513;SDS011;73447;53.262;10.424;2024-03-22T09:56:20;48.85;;;27.65;;
83513;SDS011;73447;53.262;10.424;2024-03-22T09:58:46;50.47;;;27.05;;
83513;SDS011;73447;53.262;10.424;2024-03-22T10:01:12;55.33;;;28.08;;
83513;SDS011;73447;53.262;10.424;2024-03-22T10:03:37;58.72;;;28.17;;
83513;SDS011;73447;53.262;10.424;2024-03-22T10:06:03;58.35;;;28.08;;
83513;SDS011;73447;53.262;10.424;2024-03-22T10:08:29;54.88;;;27.48;;
83513;SDS011;73447;53.262;10.424;2024-03-22T10:10:55;51.67;;;26.65;;
83513;SDS011;73447;53.262;10.424;2024-03-22T10:13:20;51.28;;;26.48;;
83513;SDS011;73447;53.262;10.424;2024-03-22T10:15:46;57.13;;;28.90;;
83513;SDS011;73447;53.262;10.424;2024-03-22T10:18:11;56.83;;;27.02;;
83513;SDS011;73447;53.262;10.424;2024-03-22T10:20:37;57.42;;;26.75;;
83513;SDS011;73447;53.262;10.424;2024-03-22T10:23:03;53.50;;;27.80;;
83513;SDS011;73447;53.262;10.424;2024-03-22T10:25:28;54.03;;;28.05;;
83513;SDS011;73447;53.262;10.424;2024-03-22T10:27:54;46.53;;;23.75;;
83513;SDS011;73447;53.262;10.424;2024-03-22T10:30:21;45.45;;;24.63;;
83513;SDS011;73447;53.262;10.424;2024-03-22T10:32:48;55.42;;;26.95;;
83513;SDS011;73447;53.262;10.424;2024-03-22T10:35:14;48.63;;;24.50;;
83513;SDS011;73447;53.262;10.424;2024-03-22T10:37:40;50.38;;;26.92;;
83513;SDS011;73447;53.262;10.424;2024-03-22T10:40:07;51.25;;;24.98;;
83513;SDS011;73447;53.262;10.424;2024-03-22T10:42:36;55.15;;;26.50;;
83513;SDS011;73447;53.262;10.424;2024-03-22T10:45:03;54.38;;;26.23;;
83513;SDS011;73447;53.262;10.424;2024-03-22T10:47:30;52.92;;;25.15;;
83513;SDS011;73447;53.262;10.424;2024-03-22T10:50:07;48.03;;;24.50;;
83513;SDS011;73447;53.262;10.424;2024-03-22T10:52:40;57.50;;;27.42;;
83513;SDS011;73447;53.262;10.424;2024-03-22T10:55:28;52.95;;;26.70;;
83513;SDS011;73447;53.262;10.424;2024-03-22T10:57:57;54.45;;;26.90;;
83513;SDS011;73447;53.262;10.424;2024-03-22T11:00:26;52.38;;;25.10;;
83513;SDS011;73447;53.262;10.424;2024-03-22T11:02:55;48.33;;;26.30;;
83513;SDS011;73447;53.262;10.424;2024-03-22T11:05:21;46.25;;;24.88;;
83513;SDS011;73447;53.262;10.424;2024-03-22T11:07:47;53.90;;;25.88;;
83513;SDS011;73447;53.262;10.424;2024-03-22T11:10:13;46.50;;;24.48;;
83513;SDS011;73447;53.262;10.424;2024-03-22T11:12:39;52.83;;;25.60;;
83513;SDS011;73447;53.262;10.424;2024-03-22T11:15:10;48.30;;;23.42;;
83513;SDS011;73447;53.262;10.424;2024-03-22T11:17:37;40.85;;;22.38;;
83513;SDS011;73447;53.262;10.424;2024-03-22T11:20:02;43.72;;;21.50;;
83513;SDS011;73447;53.262;10.424;2024-03-22T11:22:28;47.42;;;23.35;;
83513;SDS011;73447;53.262;10.424;2024-03-22T11:24:54;44.13;;;21.83;;
83513;SDS011;73447;53.262;10.424;2024-03-22T11:27:19;39.33;;;22.67;;
83513;SDS011;73447;53.262;10.424;2024-03-22T11:29:45;42.90;;;22.85;;
83513;SDS011;73447;53.262;10.424;2024-03-22T11:32:11;39.85;;;21.02;;
83513;SDS011;73447;53.262;10.424;2024-03-22T11:34:37;39.40;;;21.58;;
83513;SDS011;73447;53.262;10.424;2024-03-22T11:37:04;38.25;;;19.52;;
83513;SDS011;73447;53.262;10.424;2024-03-22T11:39:32;41.50;;;21.48;;
83513;SDS011;73447;53.262;10.424;2024-03-22T11:41:59;37.17;;;20.45;;
83513;SDS011;73447;53.262;10.424;2024-03-22T11:44:25;36.78;;;20.00;;
83513;SDS011;73447;53.262;10.424;2024-03-22T11:46:51;38.15;;;20.15;;
83513;SDS011;73447;53.262;10.424;2024-03-22T11:49:17;34.22;;;19.10;;
83513;SDS011;73447;53.262;10.424;2024-03-22T11:51:44;36.63;;;19.85;;
83513;SDS011;73447;53.262;10.424;2024-03-22T11:54:10;37.72;;;20.33;;
83513;SDS011;73447;53.262;10.424;2024-03-22T11:56:36;35.25;;;19.67;;
83513;SDS011;73447;53.262;10.424;2024-03-22T11:59:01;32.40;;;18.50;;
83513;SDS011;73447;53.262;10.424;2024-03-22T12:01:28;30.90;;;17.08;;
83513;SDS011;73447;53.262;10.424;2024-03-22T12:03:54;29.48;;;15.80;;
83513;SDS011;73447;53.262;10.424;2024-03-22T12:06:20;26.33;;;15.68;;
83513;SDS011;73447;53.262;10.424;2024-03-22T12:08:46;25.48;;;14.32;;
83513;SDS011;73447;53.262;10.424;2024-03-22T12:11:12;26.38;;;15.18;;
83513;SDS011;73447;53.262;10.424;2024-03-22T12:13:38;24.42;;;13.48;;
83513;SDS011;73447;53.262;10.424;2024-03-22T12:16:03;23.52;;;13.48;;
83513;SDS011;73447;53.262;10.424;2024-03-22T12:18:29;25.88;;;14.10;;
83513;SDS011;73447;53.262;10.424;2024-03-22T12:20:55;25.30;;;14.07;;
83513;SDS011;73447;53.262;10.424;2024-03-22T12:23:20;24.05;;;13.75;;
83513;SDS011;73447;53.262;10.424;2024-03-22T12:25:46;25.58;;;13.55;;
83513;SDS011;73447;53.262;10.424;2024-03-22T12:28:11;22.90;;;12.95;;
83513;SDS011;73447;53.262;10.424;2024-03-22T12:30:36;20.55;;;12.52;;
83513;SDS011;73447;53.262;10.424;2024-03-22T12:33:02;21.27;;;12.48;;
83513;SDS011;73447;53.262;10.424;2024-03-22T12:35:28;23.42;;;13.13;;
83513;SDS011;73447;53.262;10.424;2024-03-22T12:37:57;21.58;;;12.13;;
83513;SDS011;73447;53.262;10.424;2024-03-22T12:40:23;23.20;;;12.57;;
83513;SDS011;73447;53.262;10.424;2024-03-22T12:42:48;22.33;;;11.85;;
83513;SDS011;73447;53.262;10.424;2024-03-22T12:45:13;21.13;;;11.85;;
83513;SDS011;73447;53.262;10.424;2024-03-22T12:47:39;19.30;;;11.63;;
83513;SDS011;73447;53.262;10.424;2024-03-22T12:50:04;21.83;;;11.32;;
83513;SDS011;73447;53.262;10.424;2024-03-22T12:52:30;19.85;;;11.07;;
83513;SDS011;73447;53.262;10.424;2024-03-22T12:54:56;18.48;;;10.32;;
83513;SDS011;73447;53.262;10.424;2024-03-22T12:57:22;16.02;;;9.25;;
83513;SDS011;73447;53.262;10.424;2024-03-22T12:59:47;15.05;;;9.27;;
83513;SDS011;73447;53.262;10.424;2024-03-22T13:02:12;14.05;;;8.77;;
83513;SDS011;73447;53.262;10.424;2024-03-22T13:04:38;15.32;;;8.82;;
83513;SDS011;73447;53.262;10.424;2024-03-22T13:07:03;12.23;;;7.97;;
83513;SDS011;73447;53.262;10.424;2024-03-22T13:09:28;14.10;;;7.88;;
83513;SDS011;73447;53.262;10.424;2024-03-22T13:11:54;15.57;;;8.82;;
83513;SDS011;73447;53.262;10.424;2024-03-22T13:14:19;12.60;;;6.90;;
83513;SDS011;73447;53.262;10.424;2024-03-22T13:16:45;12.20;;;7.55;;
83513;SDS011;73447;53.262;10.424;2024-03-22T13:19:11;13.88;;;7.95;;
83513;SDS011;73447;53.262;10.424;2024-03-22T13:21:38;12.93;;;8.68;;
83513;SDS011;73447;53.262;10.424;2024-03-22T13:24:04;95.82;;;47.35;;
83513;SDS011;73447;53.262;10.424;2024-03-22T13:26:30;13.35;;;9.10;;
83513;SDS011;73447;53.262;10.424;2024-03-22T13:28:55;15.65;;;9.52;;
83513;SDS011;73447;53.262;10.424;2024-03-22T13:31:21;15.48;;;10.18;;
83513;SDS011;73447;53.262;10.424;2024-03-22T13:33:46;25.10;;;15.98;;
83513;SDS011;73447;53.262;10.424;2024-03-22T13:36:12;19.65;;;14.43;;
83513;SDS011;73447;53.262;10.424;2024-03-22T13:38:38;19.33;;;10.90;;
83513;SDS011;73447;53.262;10.424;2024-03-22T13:41:03;18.25;;;11.88;;
83513;SDS011;73447;53.262;10.424;2024-03-22T13:43:31;15.30;;;9.75;;
83513;SDS011;73447;53.262;10.424;2024-03-22T13:45:56;16.08;;;10.10;;
83513;SDS011;73447;53.262;10.424;2024-03-22T13:48:22;13.55;;;8.65;;
83513;SDS011;73447;53.262;10.424;2024-03-22T13:50:52;12.77;;;7.57;;
83513;SDS011;73447;53.262;10.424;2024-03-22T13:53:19;12.90;;;7.70;;
83513;SDS011;73447;53.262;10.424;2024-03-22T13:55:48;13.57;;;8.23;;
83513;SDS011;73447;53.262;10.424;2024-03-22T13:58:14;13.93;;;8.63;;
83513;SDS011;73447;53.262;10.424;2024-03-22T14:00:39;16.05;;;8.85;;
83513;SDS011;73447;53.262;10.424;2024-03-22T14:03:05;16.00;;;9.70;;
83513;SDS011;73447;53.262;10.424;2024-03-22T14:05:30;15.52;;;9.30;;
83513;SDS011;73447;53.262;10.424;2024-03-22T14:07:57;16.52;;;9.40;;
83513;SDS011;73447;53.262;10.424;2024-03-22T14:10:23;16.58;;;10.00;;
83513;SDS011;73447;53.262;10.424;2024-03-22T14:12:50;13.77;;;8.60;;
83513;SDS011;73447;53.262;10.424;2024-03-22T14:15:15;15.45;;;9.65;;
83513;SDS011;73447;53.262;10.424;2024-03-22T14:17:41;16.45;;;9.05;;
83513;SDS011;73447;53.262;10.424;2024-03-22T14:20:07;16.13;;;10.13;;
83513;SDS011;73447;53.262;10.424;2024-03-22T14:22:37;10.65;;;6.85;;
83513;SDS011;73447;53.262;10.424;2024-03-22T14:25:06;13.27;;;8.43;;
83513;SDS011;73447;53.262;10.424;2024-03-22T14:27:33;12.55;;;7.25;;
83513;SDS011;73447;53.262;10.424;2024-03-22T14:29:59;12.75;;;7.25;;
83513;SDS011;73447;53.262;10.424;2024-03-22T14:32:25;12.82;;;8.30;;
83513;SDS011;73447;53.262;10.424;2024-03-22T14:34:51;15.07;;;8.50;;
83513;SDS011;73447;53.262;10.424;2024-03-22T14:37:17;13.80;;;8.77;;
83513;SDS011;73447;53.262;10.424;2024-03-22T14:39:42;13.32;;;8.35;;
83513;SDS011;73447;53.262;10.424;2024-03-22T14:42:08;10.77;;;7.43;;
83513;SDS011;73447;53.262;10.424;2024-03-22T14:44:33;12.02;;;7.57;;
83513;SDS011;73447;53.262;10.424;2024-03-22T14:46:59;11.63;;;7.80;;
83513;SDS011;73447;53.262;10.424;2024-03-22T14:49:24;12.32;;;7.78;;
83513;SDS011;73447;53.262;10.424;2024-03-22T14:51:50;14.30;;;8.35;;
83513;SDS011;73447;53.262;10.424;2024-03-22T14:54:16;13.55;;;8.05;;
83513;SDS011;73447;53.262;10.424;2024-03-22T14:56:41;11.88;;;7.05;;
83513;SDS011;73447;53.262;10.424;2024-03-22T14:59:07;12.35;;;7.57;;
83513;SDS011;73447;53.262;10.424;2024-03-22T15:01:32;12.63;;;8.15;;
83513;SDS011;73447;53.262;10.424;2024-03-22T15:03:57;13.65;;;8.50;;
83513;SDS011;73447;53.262;10.424;2024-03-22T15:06:23;15.40;;;7.57;;
83513;SDS011;73447;53.262;10.424;2024-03-22T15:08:49;11.60;;;7.45;;
83513;SDS011;73447;53.262;10.424;2024-03-22T15:11:14;11.07;;;7.38;;
83513;SDS011;73447;53.262;10.424;2024-03-22T15:13:40;12.13;;;7.85;;
83513;SDS011;73447;53.262;10.424;2024-03-22T15:16:05;11.50;;;7.20;;
83513;SDS011;73447;53.262;10.424;2024-03-22T15:18:31;12.52;;;7.78;;
83513;SDS011;73447;53.262;10.424;2024-03-22T15:20:56;13.35;;;7.78;;
83513;SDS011;73447;53.262;10.424;2024-03-22T15:23:22;10.40;;;6.68;;
83513;SDS011;73447;53.262;10.424;2024-03-22T15:25:47;12.27;;;7.38;;
83513;SDS011;73447;53.262;10.424;2024-03-22T15:28:14;11.77;;;7.35;;
83513;SDS011;73447;53.262;10.424;2024-03-22T15:30:40;10.77;;;6.90;;
83513;SDS011;73447;53.262;10.424;2024-03-22T15:33:07;10.88;;;7.40;;
83513;SDS011;73447;53.262;10.424;2024-03-22T15:35:33;13.38;;;8.02;;
83513;SDS011;73447;53.262;10.424;2024-03-22T15:37:59;13.57;;;7.93;;
83513;SDS011;73447;53.262;10.424;2024-03-22T15:40:25;14.65;;;8.63;;
83513;SDS011;73447;53.262;10.424;2024-03-22T15:42:50;12.88;;;8.30;;
83513;SDS011;73447;53.262;10.424;2024-03-22T15:45:16;16.17;;;10.68;;
83513;SDS011;73447;53.262;10.424;2024-03-22T15:47:41;12.80;;;7.75;;
83513;SDS011;73447;53.262;10.424;2024-03-22T15:50:08;11.65;;;8.32;;
83513;SDS011;73447;53.262;10.424;2024-03-22T15:52:35;9.98;;;5.50;;
83513;SDS011;73447;53.262;10.424;2024-03-22T15:55:00;12.82;;;4.32;;
83513;SDS011;73447;53.262;10.424;2024-03-22T15:57:25;13.35;;;4.30;;
83513;SDS011;73447;53.262;10.424;2024-03-22T15:59:51;11.73;;;4.00;;
83513;SDS011;73447;53.262;10.424;2024-03-22T16:02:17;12.18;;;4.07;;
83513;SDS011;73447;53.262;10.424;2024-03-22T16:04:42;10.65;;;3.88;;
83513;SDS011;73447;53.262;10.424;2024-03-22T16:07:08;15.50;;;4.90;;
83513;SDS011;73447;53.262;10.424;2024-03-22T16:09:37;10.63;;;3.72;;
83513;SDS011;73447;53.262;10.424;2024-03-22T16:12:03;12.32;;;3.45;;
83513;SDS011;73447;53.262;10.424;2024-03-22T16:14:29;12.77;;;4.13;;
83513;SDS011;73447;53.262;10.424;2024-03-22T16:16:55;13.02;;;3.75;;
83513;SDS011;73447;53.262;10.424;2024-03-22T16:19:21;13.25;;;4.15;;
83513;SDS011;73447;53.262;10.424;2024-03-22T16:21:46;10.50;;;3.90;;
83513;SDS011;73447;53.262;10.424;2024-03-22T16:24:12;11.00;;;3.90;;
83513;SDS011;73447;53.262;10.424;2024-03-22T16:26:37;14.48;;;4.53;;
83513;SDS011;73447;53.262;10.424;2024-03-22T16:29:02;16.02;;;4.18;;
83513;SDS011;73447;53.262;10.424;2024-03-22T16:31:29;18.40;;;4.05;;
83513;SDS011;73447;53.262;10.424;2024-03-22T16:33:54;15.50;;;5.55;;
83513;SDS011;73447;53.262;10.424;2024-03-22T16:36:20;18.70;;;4.45;;
83513;SDS011;73447;53.262;10.424;2024-03-22T16:38:45;20.38;;;5.13;;
83513;SDS011;73447;53.262;10.424;2024-03-22T16:41:11;11.20;;;4.07;;
83513;SDS011;73447;53.262;10.424;2024-03-22T16:43:36;14.38;;;4.05;;
83513;SDS011;73447;53.262;10.424;2024-03-22T16:46:03;15.70;;;4.35;;